Celebrity Equinox — 9HXD9 — position and weather

sailwx.info

Track history (hours):
 
Tides and Currents Weather Stations Pressure Air Temp Water Temp Dewpoint Dewpoint Depression Visibility Wind Speed Wind Dir Waves Ship Positions

Celebrity Equinox

Last reported at 2019-Jul-14 15:00 UTC. Time now 2019-Jul-16 05:58 UTC.
Position N 24°30' W 081°48'.

Length 316 m; draft 8.7 m.

Type: Ship. MMSI: 249667000.

Wind from 120 at 15 knots

Barometer 1018.7 mb
Air temperature 29.4 ° C
Visibility: greater than 27.0 NM
Dewpoint 23.8 ° C
Water temperature 32.0 ° C

Date/timePositionNaut miles runAvg speedWind from/ knotsBaromVisibWave heightAir tempDewpointWater temp
2019-Jul-14 15:00N 24°30' W 081°48'115 7.2 120 / 151018.727.0 29.423.832.0
2019-Jul-13 23:00N 25°30' W 080°00'540.4 140 / 231019.4 2.2 28.723.232.3
2019-Jul-13 22:52N 25°35' W 080°01'513.1
2019-Jul-13 22:30N 25°40' W 080°01'713.0
2019-Jul-13 22:01N 25°46' W 080°01'612.8
2019-Jul-13 21:31N 25°53' W 080°01'612.9
2019-Jul-13 21:01N 25°59' W 080°02'612.8
2019-Jul-13 20:30N 26°05' W 080°05'2 3.9
2019-Jul-13 20:00N 26°05' W 080°07'0 0.0
2019-Jul-13 19:30N 26°05' W 080°07'0 0.0
2019-Jul-13 19:00N 26°05' W 080°07'0 0.0
2019-Jul-13 18:30N 26°05' W 080°07'0 0.0
2019-Jul-13 18:00N 26°05' W 080°07'0 0.0
2019-Jul-13 17:30N 26°05' W 080°07'0 0.0
2019-Jul-13 16:59N 26°05' W 080°07'0 0.0
2019-Jul-13 16:29N 26°05' W 080°07'0 0.0
2019-Jul-13 15:59N 26°05' W 080°07'0 0.0
2019-Jul-13 15:29N 26°05' W 080°07'511.1
2019-Jul-13 15:00N 26°00' W 080°06'5340.7 110 / 131019.210.8 31.124.9
2019-Jul-13 14:59N 26°05' W 080°07'0 0.0
2019-Jul-13 14:28N 26°05' W 080°07'0 0.0
2019-Jul-13 13:58N 26°05' W 080°07'0 0.0
2019-Jul-13 13:28N 26°05' W 080°07'0 0.0
2019-Jul-13 12:58N 26°05' W 080°07'0 0.0
2019-Jul-13 12:30N 26°05' W 080°07'0 0.0
2019-Jul-13 12:00N 26°05' W 080°07'0 0.0
2019-Jul-13 11:30N 26°05' W 080°07'0 0.0
2019-Jul-13 11:00N 26°05' W 080°07'0 0.1
2019-Jul-13 10:30N 26°05' W 080°07'2 4.2
2019-Jul-13 10:00N 26°06' W 080°05'611.7
2019-Jul-13 09:30N 26°06' W 079°58'612.9
2019-Jul-13 09:00N 26°07' W 079°51'612.6
2019-Jul-13 08:30N 26°07' W 079°44'612.5
2019-Jul-13 08:00N 26°08' W 079°37'815.5
2019-Jul-13 07:30N 26°09' W 079°29'3120.5
2019-Jul-13 06:00N 26°06' W 078°54'89 8.9 160 / 101017.4 27.723.631.7
2019-Jul-12 20:00N 25°00' W 077°48'2713.6 030 / 21019.310.8 29.522.632.4
2019-Jul-12 18:00N 25°00' W 077°18'37 7.4 320 / 31017.610.8 27.622.932.2
2019-Jul-12 13:00N 25°30' W 076°54'2727.1 140 / 161016.927.0 30.524.531.0
2019-Jul-12 12:00N 25°30' W 076°24'9515.8 150 / 131019.410.8 28.222.531.5
2019-Jul-12 06:00N 24°42' W 074°54'5819.2 150 / 151016.9 27.423.331.7
2019-Jul-12 03:00N 24°12' W 074°00'7017.6 090 / 121017.527.0 27.423.429.0
2019-Jul-11 23:00N 23°36' W 072°54'10821.6 100 / 111019.410.8 28.222.631.7
2019-Jul-11 18:00N 22°42' W 071°12'14721.0 100 / 101017.510.8 29.123.631.8
2019-Jul-11 11:00N 21°30' W 068°54'12224.4 080 / 121021.410.8 27.622.130.9
2019-Jul-11 06:00N 20°30' W 067°00'13920.8 080 / 171017.110.8 27.023.131.0
2019-Jul-10 23:17N 19°12' W 064°57'621.7
2019-Jul-10 23:00N 19°06' W 064°54'424.3 070 / 231020.410.8 27.621.730.9
2019-Jul-10 22:49N 19°03' W 064°51'721.9
2019-Jul-10 22:29N 18°57' W 064°46'1221.9
2019-Jul-10 21:57N 18°48' W 064°39'1221.6
2019-Jul-10 21:25N 18°38' W 064°34'14 4.0
2019-Jul-10 18:00N 18°24' W 064°36'3 0.4 110 / 151017.910.8 29.423.331.6
2019-Jul-10 09:20N 18°23' W 064°33'20 6.4
2019-Jul-10 06:11N 18°03' W 064°34'2 6.6
2019-Jul-10 05:56N 18°03' W 064°36'3 6.6
2019-Jul-10 05:28N 18°02' W 064°39'3 6.6
2019-Jul-10 05:00N 18°02' W 064°42'3 6.5
2019-Jul-10 04:29N 18°01' W 064°45'3 6.5
2019-Jul-10 03:59N 18°01' W 064°49'3 6.7
2019-Jul-10 03:30N 18°00' W 064°52'3 6.8
2019-Jul-10 03:00N 17°60' W 064°56'3 6.6
2019-Jul-10 02:30N 17°60' W 064°59'3 6.0
2019-Jul-10 02:00N 18°03' W 065°01'3 5.7
2019-Jul-10 01:30N 18°05' W 065°01'3 5.3
2019-Jul-10 01:00N 18°08' W 065°01'2 4.8
2019-Jul-10 00:30N 18°10' W 065°01'1 2.6
2019-Jul-09 23:59N 18°12' W 065°01'1 2.5
2019-Jul-09 23:30N 18°13' W 065°01'1 2.8
2019-Jul-09 23:00N 18°14' W 065°01'2 3.5
2019-Jul-09 22:30N 18°16' W 065°01'2 3.4
2019-Jul-09 22:00N 18°18' W 065°00'3 6.4
2019-Jul-09 21:30N 18°19' W 064°57'0 0.8
2019-Jul-09 20:58N 18°20' W 064°57'0 0.0
2019-Jul-09 20:28N 18°20' W 064°57'0 0.0
2019-Jul-09 19:57N 18°20' W 064°57'0 0.0
2019-Jul-09 19:15N 18°20' W 064°57'0 0.0
2019-Jul-09 18:57N 18°20' W 064°57'0 0.0
2019-Jul-09 18:27N 18°20' W 064°57'0 0.0
2019-Jul-09 17:50N 18°20' W 064°57'0 0.0
2019-Jul-09 17:26N 18°20' W 064°57'0 0.0
2019-Jul-09 16:50N 18°20' W 064°57'0 0.0
2019-Jul-09 16:26N 18°20' W 064°57'0 0.0
2019-Jul-09 15:56N 18°20' W 064°57'0 0.0
2019-Jul-09 15:25N 18°20' W 064°57'0 0.0
2019-Jul-09 14:43N 18°20' W 064°57'0 0.0
2019-Jul-09 14:25N 18°20' W 064°57'0 0.0
2019-Jul-09 13:37N 18°20' W 064°57'0 0.0
2019-Jul-09 13:25N 18°20' W 064°57'0 0.0
2019-Jul-09 12:18N 18°20' W 064°57'0 0.0
2019-Jul-09 11:48N 18°20' W 064°57'0 0.0
2019-Jul-09 11:30N 18°20' W 064°57'2 3.8
2019-Jul-09 11:00N 18°19' W 064°59'510.1
2019-Jul-09 10:30N 18°18' W 065°04'611.2
2019-Jul-09 10:00N 18°20' W 065°09'611.5
2019-Jul-09 09:30N 18°25' W 065°12'611.6
2019-Jul-09 09:00N 18°30' W 065°14'610.9
2019-Jul-09 08:30N 18°35' W 065°17'1 2.2
2019-Jul-09 08:00N 18°36' W 065°18'52921.5 090 / 171019.410.8 27.523.130.2
2019-Jul-09 07:59N 18°37' W 065°23'611.3
2019-Jul-09 07:30N 18°38' W 065°29'511.0
2019-Jul-09 07:00N 18°39' W 065°34'611.0
2019-Jul-09 06:30N 18°40' W 065°40'611.2
2019-Jul-09 06:00N 18°40' W 065°46'511.0
2019-Jul-09 05:30N 18°40' W 065°52'611.1
2019-Jul-09 04:59N 18°41' W 065°58'10 9.6
2019-Jul-09 03:57N 18°34' W 066°06'7 9.8
2019-Jul-09 03:17N 18°27' W 066°07'4 0.8
2019-Jul-08 23:00N 18°24' W 066°06'4 1.3 030 / 51016.210.8 27.524.131.0
2019-Jul-08 19:57N 18°28' W 066°07'0 0.0
2019-Jul-08 19:24N 18°28' W 066°07'0 0.0
2019-Jul-08 19:00N 18°28' W 066°07'1 2.4
2019-Jul-08 18:30N 18°29' W 066°08'610.8
2019-Jul-08 17:54N 18°35' W 066°09'1013.3
2019-Jul-08 17:10N 18°43' W 066°15'8413.6
2019-Jul-08 11:00N 19°36' W 067°24'9118.2 090 / 211018.410.8 27.221.630.3
2019-Jul-08 06:00N 20°30' W 068°42'12417.7 100 / 181015.910.8 27.222.530.7
2019-Jul-07 23:00N 21°42' W 070°30'24922.6 090 / 181018.410.8 27.720.731.0
2019-Jul-07 12:00N 24°12' W 074°06'2020.3 110 / 191017.610.8 27.922.8
2019-Jul-07 11:00N 24°24' W 074°24'11523.0 130 / 191019.410.8 27.921.430.9
2019-Jul-07 06:00N 25°24' W 076°12'15221.7 140 / 191016.710.8 27.822.431.4
2019-Jul-06 23:00N 26°06' W 078°54'3623.1 150 / 171019.410.8 29.420.331.4
2019-Jul-06 21:26N 26°11' W 079°33'921.2
2019-Jul-06 21:00N 26°09' W 079°43'1020.8
2019-Jul-06 20:30N 26°07' W 079°55'918.1
2019-Jul-06 20:01N 26°06' W 080°05'2 3.9
2019-Jul-06 19:30N 26°05' W 080°07'0 0.0
2019-Jul-06 19:00N 26°05' W 080°07'0 0.0
2019-Jul-06 18:30N 26°05' W 080°07'0 0.0
2019-Jul-06 18:00N 26°05' W 080°07'52427.4
2019-Jul-06 18:00N 26°00' W 080°06'510.8 160 / 121019.310.8 30.323.632.1
2019-Jul-06 17:29N 26°05' W 080°07'0 0.0
2019-Jul-06 16:59N 26°05' W 080°07'0 0.0
2019-Jul-06 16:29N 26°05' W 080°07'0 0.0
2019-Jul-06 15:59N 26°05' W 080°07'0 0.0
2019-Jul-06 15:29N 26°05' W 080°07'511.1
2019-Jul-06 15:00N 26°00' W 080°06'5281.4 150 / 161019.327.0 28.123.130.0
2019-Jul-06 14:58N 26°05' W 080°07'0 0.0
2019-Jul-06 14:28N 26°05' W 080°07'0 0.0
2019-Jul-06 13:58N 26°05' W 080°07'0 0.0
2019-Jul-06 13:28N 26°05' W 080°07'0 0.0
2019-Jul-06 13:00N 26°05' W 080°07'0 0.0
2019-Jul-06 12:30N 26°05' W 080°07'0 0.0
2019-Jul-06 12:00N 26°05' W 080°07'0 0.0
2019-Jul-06 11:30N 26°05' W 080°07'0 0.0
2019-Jul-06 11:00N 26°05' W 080°07'0 0.9
2019-Jul-06 10:30N 26°06' W 080°07'510.9
2019-Jul-06 10:00N 26°06' W 080°00'713.9
2019-Jul-06 09:30N 25°59' W 079°59'815.3
2019-Jul-06 09:00N 25°51' W 079°59'816.5
2019-Jul-06 08:31N 25°43' W 079°59'917.6
2019-Jul-06 08:01N 25°34' W 079°59'917.3
2019-Jul-06 07:30N 25°26' W 079°59'816.9
2019-Jul-06 07:00N 25°18' W 080°02'917.6
2019-Jul-06 06:30N 25°09' W 080°04'12516.6
2019-Jul-05 23:00N 23°54' W 081°54'9519.1 150 / 161018.410.8 28.721.731.3
2019-Jul-05 18:00N 23°06' W 083°24'10217.1 090 / 101016.110.8 29.223.431.3
2019-Jul-05 12:00N 22°06' W 084°54'1313.2 110 / 141014.827.0 27.524.130.0
2019-Jul-05 11:00N 21°54' W 085°00'9819.6 100 / 121014.510.8 27.524.531.0
2019-Jul-05 06:00N 20°48' W 083°42'13722.8 160 / 81014.510.8 27.923.531.0
2019-Jul-05 00:00N 19°30' W 081°42'   010 / 51016.310.8 27.621.431.2
Track history (hours):
 
Tides and Currents Weather Stations Pressure Air Temp Water Temp Dewpoint Dewpoint Depression Visibility Wind Speed Wind Dir Waves Ship Positions

Celebrity Equinox

Last reported at 2019-Jul-14 15:00 UTC. Time now 2019-Jul-16 05:58 UTC.
Position N 24°30' W 081°48'.

Length 316 m; draft 8.7 m.

Type: Ship. MMSI: 249667000.

Wind from 120 at 15 knots

Barometer 1018.7 mb
Air temperature 29.4 ° C
Visibility: greater than 27.0 NM
Dewpoint 23.8 ° C
Water temperature 32.0 ° C

Date/timePositionNaut miles runAvg speedWind from/ knotsBaromVisibWave heightAir tempDewpointWater temp
2019-Jul-14 15:00N 24°30' W 081°48'115 7.2 120 / 151018.727.0 29.423.832.0
2019-Jul-13 23:00N 25°30' W 080°00'540.4 140 / 231019.4 2.2 28.723.232.3
2019-Jul-13 22:52N 25°35' W 080°01'513.1
2019-Jul-13 22:30N 25°40' W 080°01'713.0
2019-Jul-13 22:01N 25°46' W 080°01'612.8
2019-Jul-13 21:31N 25°53' W 080°01'612.9
2019-Jul-13 21:01N 25°59' W 080°02'612.8
2019-Jul-13 20:30N 26°05' W 080°05'2 3.9
2019-Jul-13 20:00N 26°05' W 080°07'0 0.0
2019-Jul-13 19:30N 26°05' W 080°07'0 0.0
2019-Jul-13 19:00N 26°05' W 080°07'0 0.0
2019-Jul-13 18:30N 26°05' W 080°07'0 0.0
2019-Jul-13 18:00N 26°05' W 080°07'0 0.0
2019-Jul-13 17:30N 26°05' W 080°07'0 0.0
2019-Jul-13 16:59N 26°05' W 080°07'0 0.0
2019-Jul-13 16:29N 26°05' W 080°07'0 0.0
2019-Jul-13 15:59N 26°05' W 080°07'0 0.0
2019-Jul-13 15:29N 26°05' W 080°07'511.1
2019-Jul-13 15:00N 26°00' W 080°06'5340.7 110 / 131019.210.8 31.124.9
2019-Jul-13 14:59N 26°05' W 080°07'0 0.0
2019-Jul-13 14:28N 26°05' W 080°07'0 0.0
2019-Jul-13 13:58N 26°05' W 080°07'0 0.0
2019-Jul-13 13:28N 26°05' W 080°07'0 0.0
2019-Jul-13 12:58N 26°05' W 080°07'0 0.0
2019-Jul-13 12:30N 26°05' W 080°07'0 0.0
2019-Jul-13 12:00N 26°05' W 080°07'0 0.0
2019-Jul-13 11:30N 26°05' W 080°07'0 0.0
2019-Jul-13 11:00N 26°05' W 080°07'0 0.1
2019-Jul-13 10:30N 26°05' W 080°07'2 4.2
2019-Jul-13 10:00N 26°06' W 080°05'611.7
2019-Jul-13 09:30N 26°06' W 079°58'612.9
2019-Jul-13 09:00N 26°07' W 079°51'612.6
2019-Jul-13 08:30N 26°07' W 079°44'612.5
2019-Jul-13 08:00N 26°08' W 079°37'815.5
2019-Jul-13 07:30N 26°09' W 079°29'3120.5
2019-Jul-13 06:00N 26°06' W 078°54'89 8.9 160 / 101017.4 27.723.631.7
2019-Jul-12 20:00N 25°00' W 077°48'2713.6 030 / 21019.310.8 29.522.632.4
2019-Jul-12 18:00N 25°00' W 077°18'37 7.4 320 / 31017.610.8 27.622.932.2
2019-Jul-12 13:00N 25°30' W 076°54'2727.1 140 / 161016.927.0 30.524.531.0
2019-Jul-12 12:00N 25°30' W 076°24'9515.8 150 / 131019.410.8 28.222.531.5
2019-Jul-12 06:00N 24°42' W 074°54'5819.2 150 / 151016.9 27.423.331.7
2019-Jul-12 03:00N 24°12' W 074°00'7017.6 090 / 121017.527.0 27.423.429.0
2019-Jul-11 23:00N 23°36' W 072°54'10821.6 100 / 111019.410.8 28.222.631.7
2019-Jul-11 18:00N 22°42' W 071°12'14721.0 100 / 101017.510.8 29.123.631.8
2019-Jul-11 11:00N 21°30' W 068°54'12224.4 080 / 121021.410.8 27.622.130.9
2019-Jul-11 06:00N 20°30' W 067°00'13920.8 080 / 171017.110.8 27.023.131.0
2019-Jul-10 23:17N 19°12' W 064°57'621.7
2019-Jul-10 23:00N 19°06' W 064°54'424.3 070 / 231020.410.8 27.621.730.9
2019-Jul-10 22:49N 19°03' W 064°51'721.9
2019-Jul-10 22:29N 18°57' W 064°46'1221.9
2019-Jul-10 21:57N 18°48' W 064°39'1221.6
2019-Jul-10 21:25N 18°38' W 064°34'14 4.0
2019-Jul-10 18:00N 18°24' W 064°36'3 0.4 110 / 151017.910.8 29.423.331.6
2019-Jul-10 09:20N 18°23' W 064°33'20 6.4
2019-Jul-10 06:11N 18°03' W 064°34'2 6.6
2019-Jul-10 05:56N 18°03' W 064°36'3 6.6
2019-Jul-10 05:28N 18°02' W 064°39'3 6.6
2019-Jul-10 05:00N 18°02' W 064°42'3 6.5
2019-Jul-10 04:29N 18°01' W 064°45'3 6.5
2019-Jul-10 03:59N 18°01' W 064°49'3 6.7
2019-Jul-10 03:30N 18°00' W 064°52'3 6.8
2019-Jul-10 03:00N 17°60' W 064°56'3 6.6
2019-Jul-10 02:30N 17°60' W 064°59'3 6.0
2019-Jul-10 02:00N 18°03' W 065°01'3 5.7
2019-Jul-10 01:30N 18°05' W 065°01'3 5.3
2019-Jul-10 01:00N 18°08' W 065°01'2 4.8
2019-Jul-10 00:30N 18°10' W 065°01'1 2.6
2019-Jul-09 23:59N 18°12' W 065°01'1 2.5
2019-Jul-09 23:30N 18°13' W 065°01'1 2.8
2019-Jul-09 23:00N 18°14' W 065°01'2 3.5
2019-Jul-09 22:30N 18°16' W 065°01'2 3.4
2019-Jul-09 22:00N 18°18' W 065°00'3 6.4
2019-Jul-09 21:30N 18°19' W 064°57'0 0.8
2019-Jul-09 20:58N 18°20' W 064°57'0 0.0
2019-Jul-09 20:28N 18°20' W 064°57'0 0.0
2019-Jul-09 19:57N 18°20' W 064°57'0 0.0
2019-Jul-09 19:15N 18°20' W 064°57'0 0.0
2019-Jul-09 18:57N 18°20' W 064°57'0 0.0
2019-Jul-09 18:27N 18°20' W 064°57'0 0.0
2019-Jul-09 17:50N 18°20' W 064°57'0 0.0
2019-Jul-09 17:26N 18°20' W 064°57'0 0.0
2019-Jul-09 16:50N 18°20' W 064°57'0 0.0
2019-Jul-09 16:26N 18°20' W 064°57'0 0.0
2019-Jul-09 15:56N 18°20' W 064°57'0 0.0
2019-Jul-09 15:25N 18°20' W 064°57'0 0.0
2019-Jul-09 14:43N 18°20' W 064°57'0 0.0
2019-Jul-09 14:25N 18°20' W 064°57'0 0.0
2019-Jul-09 13:37N 18°20' W 064°57'0 0.0
2019-Jul-09 13:25N 18°20' W 064°57'0 0.0
2019-Jul-09 12:18N 18°20' W 064°57'0 0.0
2019-Jul-09 11:48N 18°20' W 064°57'0 0.0
2019-Jul-09 11:30N 18°20' W 064°57'2 3.8
2019-Jul-09 11:00N 18°19' W 064°59'510.1
2019-Jul-09 10:30N 18°18' W 065°04'611.2
2019-Jul-09 10:00N 18°20' W 065°09'611.5
2019-Jul-09 09:30N 18°25' W 065°12'611.6
2019-Jul-09 09:00N 18°30' W 065°14'610.9
2019-Jul-09 08:30N 18°35' W 065°17'1 2.2
2019-Jul-09 08:00N 18°36' W 065°18'52921.5 090 / 171019.410.8 27.523.130.2
2019-Jul-09 07:59N 18°37' W 065°23'611.3
2019-Jul-09 07:30N 18°38' W 065°29'511.0
2019-Jul-09 07:00N 18°39' W 065°34'611.0
2019-Jul-09 06:30N 18°40' W 065°40'611.2
2019-Jul-09 06:00N 18°40' W 065°46'511.0
2019-Jul-09 05:30N 18°40' W 065°52'611.1
2019-Jul-09 04:59N 18°41' W 065°58'10 9.6
2019-Jul-09 03:57N 18°34' W 066°06'7 9.8
2019-Jul-09 03:17N 18°27' W 066°07'4 0.8
2019-Jul-08 23:00N 18°24' W 066°06'4 1.3 030 / 51016.210.8 27.524.131.0
2019-Jul-08 19:57N 18°28' W 066°07'0 0.0
2019-Jul-08 19:24N 18°28' W 066°07'0 0.0
2019-Jul-08 19:00N 18°28' W 066°07'1 2.4
2019-Jul-08 18:30N 18°29' W 066°08'610.8
2019-Jul-08 17:54N 18°35' W 066°09'1013.3
2019-Jul-08 17:10N 18°43' W 066°15'8413.6
2019-Jul-08 11:00N 19°36' W 067°24'9118.2 090 / 211018.410.8 27.221.630.3
2019-Jul-08 06:00N 20°30' W 068°42'12417.7 100 / 181015.910.8 27.222.530.7
2019-Jul-07 23:00N 21°42' W 070°30'24922.6 090 / 181018.410.8 27.720.731.0
2019-Jul-07 12:00N 24°12' W 074°06'2020.3 110 / 191017.610.8 27.922.8
2019-Jul-07 11:00N 24°24' W 074°24'11523.0 130 / 191019.410.8 27.921.430.9
2019-Jul-07 06:00N 25°24' W 076°12'15221.7 140 / 191016.710.8 27.822.431.4
2019-Jul-06 23:00N 26°06' W 078°54'3623.1 150 / 171019.410.8 29.420.331.4
2019-Jul-06 21:26N 26°11' W 079°33'921.2
2019-Jul-06 21:00N 26°09' W 079°43'1020.8
2019-Jul-06 20:30N 26°07' W 079°55'918.1
2019-Jul-06 20:01N 26°06' W 080°05'2 3.9
2019-Jul-06 19:30N 26°05' W 080°07'0 0.0
2019-Jul-06 19:00N 26°05' W 080°07'0 0.0
2019-Jul-06 18:30N 26°05' W 080°07'0 0.0
2019-Jul-06 18:00N 26°05' W 080°07'52427.4
2019-Jul-06 18:00N 26°00' W 080°06'510.8 160 / 121019.310.8 30.323.632.1
2019-Jul-06 17:29N 26°05' W 080°07'0 0.0
2019-Jul-06 16:59N 26°05' W 080°07'0 0.0
2019-Jul-06 16:29N 26°05' W 080°07'0 0.0
2019-Jul-06 15:59N 26°05' W 080°07'0 0.0
2019-Jul-06 15:29N 26°05' W 080°07'511.1
2019-Jul-06 15:00N 26°00' W 080°06'5281.4 150 / 161019.327.0 28.123.130.0
2019-Jul-06 14:58N 26°05' W 080°07'0 0.0
2019-Jul-06 14:28N 26°05' W 080°07'0 0.0
2019-Jul-06 13:58N 26°05' W 080°07'0 0.0
2019-Jul-06 13:28N 26°05' W 080°07'0 0.0
2019-Jul-06 13:00N 26°05' W 080°07'0 0.0
2019-Jul-06 12:30N 26°05' W 080°07'0 0.0
2019-Jul-06 12:00N 26°05' W 080°07'0 0.0
2019-Jul-06 11:30N 26°05' W 080°07'0 0.0
2019-Jul-06 11:00N 26°05' W 080°07'0 0.9
2019-Jul-06 10:30N 26°06' W 080°07'510.9
2019-Jul-06 10:00N 26°06' W 080°00'713.9
2019-Jul-06 09:30N 25°59' W 079°59'815.3
2019-Jul-06 09:00N 25°51' W 079°59'816.5
2019-Jul-06 08:31N 25°43' W 079°59'917.6
2019-Jul-06 08:01N 25°34' W 079°59'917.3
2019-Jul-06 07:30N 25°26' W 079°59'816.9
2019-Jul-06 07:00N 25°18' W 080°02'917.6
2019-Jul-06 06:30N 25°09' W 080°04'12516.6
2019-Jul-05 23:00N 23°54' W 081°54'9519.1 150 / 161018.410.8 28.721.731.3
2019-Jul-05 18:00N 23°06' W 083°24'10217.1 090 / 101016.110.8 29.223.431.3
2019-Jul-05 12:00N 22°06' W 084°54'1313.2 110 / 141014.827.0 27.524.130.0
2019-Jul-05 11:00N 21°54' W 085°00'9819.6 100 / 121014.510.8 27.524.531.0
2019-Jul-05 06:00N 20°48' W 083°42'13722.8 160 / 81014.510.8 27.923.531.0
2019-Jul-05 00:00N 19°30' W 081°42'   010 / 51016.310.8 27.621.431.2

Dump ship's entire track history